Time;durP1;ratioP1;P1;durP2;ratioP2;P2;SDS_P1;SDS_P2;PMS_P1;PMS_P2;Temp;Humidity;BMP_temperature;BMP_pressure;BME280_temperature;BME280_humidity;BME280_pressure;Samples;Min_cycle;Max_cycle;Signal;HPM_P1;HPM_P2
2024/04/13 00:01:24;;;;;;;8.87;6.73;;;14.30;99.90;;;;;;5455169;26;20291;-65
2024/04/13 00:03:51;;;;;;;13.33;6.83;;;14.20;99.90;;;;;;5454767;25;20266;-65
2024/04/13 00:06:22;;;;;;;8.33;6.30;;;14.20;99.90;;;;;;5456636;26;20261;-65
2024/04/13 00:08:50;;;;;;;10.47;6.57;;;14.10;99.90;;;;;;5447137;26;20262;-65
2024/04/13 00:11:23;;;;;;;9.40;6.80;;;14.10;99.90;;;;;;5454185;26;20262;-65
2024/04/13 00:13:51;;;;;;;10.33;6.87;;;14.00;99.90;;;;;;5457079;26;20260;-65
2024/04/13 00:16:21;;;;;;;14.47;6.90;;;14.00;99.90;;;;;;5462164;26;20240;-65
2024/04/13 00:18:48;;;;;;;11.67;8.20;;;13.90;99.90;;;;;;5445428;26;20265;-65
2024/04/13 00:21:18;;;;;;;12.00;7.90;;;13.90;99.90;;;;;;5451658;26;20350;-65
2024/04/13 00:23:47;;;;;;;10.53;7.53;;;13.90;99.90;;;;;;5446437;25;20289;-65
2024/04/13 00:26:17;;;;;;;11.90;7.30;;;13.90;99.90;;;;;;5451093;26;20272;-65
2024/04/13 00:28:48;;;;;;;12.50;7.83;;;13.90;99.90;;;;;;5455483;25;20247;-65
2024/04/13 00:31:20;;;;;;;14.83;8.00;;;13.90;99.90;;;;;;5447606;26;20272;-65
2024/04/13 00:33:47;;;;;;;11.00;8.10;;;13.90;99.90;;;;;;5451545;26;20250;-65
2024/04/13 00:36:18;;;;;;;14.90;8.47;;;13.80;99.90;;;;;;5455545;26;20244;-65
2024/04/13 00:38:45;;;;;;;11.90;8.30;;;13.90;99.90;;;;;;5452857;26;20296;-65
2024/04/13 00:41:15;;;;;;;14.07;8.70;;;13.90;99.90;;;;;;5456843;26;20254;-65
2024/04/13 00:43:43;;;;;;;15.10;9.00;;;14.00;99.90;;;;;;5454445;25;20273;-65
2024/04/13 00:46:23;;;;;;;12.40;8.67;;;14.00;99.90;;;;;;5457852;26;20235;-65
2024/04/13 00:48:53;;;;;;;16.07;9.17;;;14.00;99.90;;;;;;5459051;25;20295;-65
2024/04/13 00:51:25;;;;;;;14.47;9.03;;;14.00;99.90;;;;;;5457628;26;20286;-65
2024/04/13 00:53:55;;;;;;;15.87;9.40;;;14.00;99.90;;;;;;5457750;26;20932;-65
2024/04/13 00:56:25;;;;;;;13.40;9.20;;;14.00;99.90;;;;;;5457127;26;21239;-65
2024/04/13 00:58:53;;;;;;;17.70;9.30;;;14.00;99.90;;;;;;5451540;26;20722;-65
2024/04/13 01:01:27;;;;;;;13.60;9.27;;;14.00;99.90;;;;;;5456935;26;20752;-65
2024/04/13 01:03:54;;;;;;;13.57;8.20;;;13.90;99.90;;;;;;5462349;26;20292;-65
2024/04/13 01:06:28;;;;;;;14.77;8.83;;;13.90;99.90;;;;;;5452659;25;20261;-65
2024/04/13 01:08:56;;;;;;;10.77;8.20;;;13.80;99.90;;;;;;5454714;26;20593;-65
2024/04/13 01:11:26;;;;;;;15.80;8.83;;;13.80;99.90;;;;;;5458766;26;20265;-65
2024/04/13 01:13:56;;;;;;;14.10;8.77;;;13.70;99.90;;;;;;5450772;26;20235;-65
2024/04/13 01:16:28;;;;;;;11.77;8.40;;;13.70;99.90;;;;;;5452267;26;20240;-65
2024/04/13 01:18:58;;;;;;;10.90;8.83;;;13.60;99.90;;;;;;5446972;26;20258;-66
2024/04/13 01:21:29;;;;;;;13.60;8.63;;;13.60;99.90;;;;;;5453718;26;20275;-64
2024/04/13 01:24:07;;;;;;;11.70;9.23;;;13.60;99.90;;;;;;5448556;26;20599;-65
2024/04/13 01:26:38;;;;;;;14.67;9.50;;;13.60;99.90;;;;;;5443396;26;20267;-65
2024/04/13 01:29:10;;;;;;;14.80;8.30;;;13.60;99.90;;;;;;5452983;26;20690;-65
2024/04/13 01:31:38;;;;;;;13.87;8.87;;;13.50;99.90;;;;;;5451443;26;20249;-65
2024/04/13 01:34:08;;;;;;;13.83;8.87;;;13.50;99.90;;;;;;5461609;26;20237;-65
2024/04/13 01:36:36;;;;;;;15.00;9.10;;;13.50;99.90;;;;;;5453792;26;20266;-66
2024/04/13 01:39:10;;;;;;;12.57;8.80;;;13.50;99.90;;;;;;5458503;26;20259;-65
2024/04/13 01:41:39;;;;;;;12.33;8.57;;;13.40;99.90;;;;;;5452997;26;20339;-65
2024/04/13 01:44:11;;;;;;;16.07;9.10;;;13.40;99.90;;;;;;5457695;26;20259;-65
2024/04/13 01:46:41;;;;;;;13.20;8.60;;;13.30;99.90;;;;;;5459659;25;20251;-65
2024/04/13 01:49:11;;;;;;;15.77;9.07;;;13.30;99.90;;;;;;5463755;26;20244;-65
2024/04/13 01:51:39;;;;;;;13.33;9.23;;;13.20;99.90;;;;;;5457676;26;20294;-66
2024/04/13 01:54:12;;;;;;;15.47;10.23;;;13.20;99.90;;;;;;5452554;26;20254;-65
2024/04/13 01:56:41;;;;;;;15.60;9.70;;;13.20;99.90;;;;;;5463075;25;20293;-65
2024/04/13 01:59:11;;;;;;;14.07;10.00;;;13.20;99.90;;;;;;5454407;26;20305;-65
2024/04/13 02:01:38;;;;;;;14.33;10.13;;;13.10;99.90;;;;;;5455419;26;20236;-60
2024/04/13 02:04:08;;;;;;;14.80;10.07;;;13.10;99.90;;;;;;5462177;26;20278;-65
2024/04/13 02:06:36;;;;;;;11.80;9.20;;;13.10;99.90;;;;;;5461791;25;20302;-65
2024/04/13 02:09:06;;;;;;;14.23;9.67;;;13.10;99.90;;;;;;5451480;26;20300;-65
2024/04/13 02:11:37;;;;;;;16.00;9.90;;;13.00;99.90;;;;;;5462368;26;20272;-66
2024/04/13 02:14:07;;;;;;;11.40;8.90;;;13.00;99.90;;;;;;5448889;26;20253;-65
2024/04/13 02:16:34;;;;;;;14.83;9.00;;;13.00;99.90;;;;;;5453749;26;20322;-65
2024/04/13 02:19:04;;;;;;;14.93;9.33;;;12.90;99.90;;;;;;5453279;26;20258;-65
2024/04/13 02:21:32;;;;;;;19.27;10.37;;;12.90;99.90;;;;;;5457313;26;20260;-65
2024/04/13 02:24:03;;;;;;;13.90;9.63;;;12.90;99.90;;;;;;5454438;26;20256;-65
2024/04/13 02:26:31;;;;;;;14.07;9.20;;;12.90;99.90;;;;;;5456902;26;20646;-65
2024/04/13 02:29:04;;;;;;;14.83;9.63;;;12.90;99.90;;;;;;5447885;26;20312;-65
2024/04/13 02:31:32;;;;;;;14.97;10.60;;;12.90;99.90;;;;;;5447608;26;20233;-65
2024/04/13 02:34:03;;;;;;;18.07;10.53;;;12.90;99.90;;;;;;5466896;25;20296;-65
2024/04/13 02:36:31;;;;;;;21.43;10.63;;;12.90;99.90;;;;;;5452078;26;20312;-65
2024/04/13 02:39:07;;;;;;;16.03;10.83;;;12.90;99.90;;;;;;5456185;26;20257;-65
2024/04/13 02:41:35;;;;;;;18.93;10.80;;;12.90;99.90;;;;;;5454297;26;20444;-65
2024/04/13 02:44:08;;;;;;;16.00;10.33;;;12.90;99.90;;;;;;5461427;26;20260;-65
2024/04/13 02:46:37;;;;;;;13.27;9.87;;;12.80;99.90;;;;;;5456159;26;20276;-65
2024/04/13 02:49:07;;;;;;;14.80;9.90;;;12.80;99.90;;;;;;5449021;26;20241;-65
2024/04/13 02:51:35;;;;;;;16.37;10.43;;;12.70;99.90;;;;;;5449211;26;20257;-66
2024/04/13 02:54:07;;;;;;;16.00;10.53;;;12.70;99.90;;;;;;5459399;25;20249;-65
2024/04/13 02:56:35;;;;;;;16.00;9.87;;;12.60;99.90;;;;;;5455224;26;20292;-65
2024/04/13 02:59:09;;;;;;;16.77;9.93;;;12.60;99.90;;;;;;5456268;26;20959;-65
2024/04/13 03:01:36;;;;;;;16.37;10.43;;;12.50;99.90;;;;;;5460473;26;20245;-65
2024/04/13 03:04:10;;;;;;;14.57;10.43;;;12.50;99.90;;;;;;5468842;26;20751;-65
2024/04/13 03:06:38;;;;;;;20.37;11.47;;;12.40;99.90;;;;;;5458329;26;20257;-65
2024/04/13 03:09:09;;;;;;;16.40;11.20;;;12.40;99.90;;;;;;5454396;26;20366;-66
2024/04/13 03:11:36;;;;;;;16.07;11.20;;;12.40;99.90;;;;;;5455363;26;20256;-65
2024/04/13 03:14:09;;;;;;;12.37;10.20;;;12.30;99.90;;;;;;5455168;26;20274;-65
2024/04/13 03:16:40;;;;;;;16.00;10.63;;;12.30;99.90;;;;;;5456025;26;20746;-66
2024/04/13 03:19:10;;;;;;;13.60;10.17;;;12.40;99.90;;;;;;5451697;26;20256;-65
2024/04/13 03:21:38;;;;;;;15.43;11.37;;;12.40;99.90;;;;;;5449839;26;20261;-65
2024/04/13 03:24:08;;;;;;;23.43;11.57;;;12.30;99.90;;;;;;5454471;25;20300;-65
2024/04/13 03:26:36;;;;;;;17.53;11.80;;;12.40;99.90;;;;;;5453118;26;20257;-65
2024/04/13 03:29:09;;;;;;;16.50;11.37;;;12.40;99.90;;;;;;5455256;25;20279;-65
2024/04/13 03:31:36;;;;;;;21.23;11.97;;;12.40;99.90;;;;;;5454744;26;20263;-65
2024/04/13 03:34:07;;;;;;;19.83;12.37;;;12.40;99.90;;;;;;5454778;26;20262;-65
2024/04/13 03:36:35;;;;;;;22.27;12.20;;;12.40;99.90;;;;;;5457005;26;20288;-65
2024/04/13 03:39:06;;;;;;;21.73;12.57;;;12.40;99.90;;;;;;5456926;26;20321;-65
2024/04/13 03:41:34;;;;;;;17.97;12.10;;;12.40;99.90;;;;;;5458006;26;20411;-65
2024/04/13 03:44:03;;;;;;;19.50;12.60;;;12.40;99.90;;;;;;5453627;25;20313;-65
2024/04/13 03:46:34;;;;;;;18.53;11.27;;;12.30;99.90;;;;;;5444801;26;20279;-65
2024/04/13 03:49:04;;;;;;;20.43;12.37;;;12.30;99.90;;;;;;5458321;26;20307;-65
2024/04/13 03:51:32;;;;;;;18.77;12.13;;;12.30;99.90;;;;;;5453124;26;20250;-65
2024/04/13 03:54:03;;;;;;;20.53;12.80;;;12.20;99.90;;;;;;5454836;26;20270;-66
2024/04/13 03:56:32;;;;;;;18.03;11.53;;;12.20;99.90;;;;;;5462250;26;20319;-65
2024/04/13 03:59:02;;;;;;;20.30;12.57;;;12.20;99.90;;;;;;5450556;26;20249;-65
2024/04/13 04:01:34;;;;;;;23.90;12.43;;;12.20;99.90;;;;;;5442804;26;20309;-65
2024/04/13 04:04:05;;;;;;;23.63;13.00;;;12.20;99.90;;;;;;5457057;26;20261;-65
2024/04/13 04:06:33;;;;;;;21.27;12.30;;;12.20;99.90;;;;;;5449050;26;20292;-66
2024/04/13 04:09:10;;;;;;;16.73;11.97;;;12.20;99.90;;;;;;5450167;25;20283;-65
2024/04/13 04:11:38;;;;;;;17.17;11.70;;;12.20;99.90;;;;;;5456636;26;20266;-65
2024/04/13 04:14:08;;;;;;;18.60;12.20;;;12.10;99.90;;;;;;5450951;26;20296;-65
2024/04/13 04:16:38;;;;;;;19.80;11.73;;;12.10;99.90;;;;;;5458365;26;20267;-66
2024/04/13 04:19:08;;;;;;;20.83;11.90;;;12.10;99.90;;;;;;5459109;26;20237;-65
2024/04/13 04:21:37;;;;;;;18.40;11.87;;;12.10;99.90;;;;;;5452631;26;20340;-65
2024/04/13 04:24:07;;;;;;;19.40;12.20;;;12.00;99.90;;;;;;5445393;26;20257;-65
2024/04/13 04:26:35;;;;;;;18.73;11.53;;;12.00;99.90;;;;;;5453900;26;20264;-65
2024/04/13 04:29:05;;;;;;;17.33;11.63;;;12.00;99.90;;;;;;5457504;26;20328;-65
2024/04/13 04:31:33;;;;;;;19.97;12.10;;;11.90;99.90;;;;;;5455386;26;20281;-65
2024/04/13 04:34:07;;;;;;;25.13;13.17;;;11.90;99.90;;;;;;5454935;26;20291;-65
2024/04/13 04:36:34;;;;;;;18.17;12.43;;;12.00;99.90;;;;;;5456955;26;20245;-65
2024/04/13 04:39:05;;;;;;;21.67;13.23;;;12.10;99.90;;;;;;5452158;26;20639;-66
2024/04/13 04:41:33;;;;;;;19.03;12.80;;;12.10;99.90;;;;;;5449324;26;20291;-65
2024/04/13 04:44:03;;;;;;;22.77;13.50;;;12.10;99.90;;;;;;5450454;26;20306;-66
2024/04/13 04:46:31;;;;;;;21.90;12.90;;;12.20;99.90;;;;;;5445040;26;20233;-66
2024/04/13 04:49:01;;;;;;;25.50;12.27;;;12.20;99.90;;;;;;5452254;25;20776;-66
2024/04/13 04:51:32;;;;;;;19.07;13.33;;;12.30;99.90;;;;;;5453220;26;20252;-66
2024/04/13 04:54:02;;;;;;;22.50;12.70;;;12.30;99.90;;;;;;5452147;26;20261;-66
2024/04/13 04:56:31;;;;;;;23.50;12.60;;;12.40;99.90;;;;;;5459426;26;20298;-66
2024/04/13 04:59:01;;;;;;;17.90;11.90;;;12.40;99.90;;;;;;5447989;26;20407;-66
2024/04/13 05:01:29;;;;;;;17.90;12.50;;;12.40;99.90;;;;;;5455648;26;21024;-66
2024/04/13 05:03:59;;;;;;;20.60;12.17;;;12.40;99.90;;;;;;5454132;26;20252;-66
2024/04/13 05:06:27;;;;;;;19.80;11.40;;;12.40;99.90;;;;;;5455009;26;20868;-66
2024/04/13 05:09:00;;;;;;;23.37;12.67;;;12.40;99.90;;;;;;5446665;26;20805;-66
2024/04/13 05:11:28;;;;;;;18.00;11.40;;;12.40;99.90;;;;;;5460796;26;20265;-66
2024/04/13 05:13:58;;;;;;;17.53;12.47;;;12.50;99.90;;;;;;5451345;26;20695;-66
2024/04/13 05:16:25;;;;;;;19.00;12.40;;;12.50;99.90;;;;;;5452061;26;20665;-66
2024/04/13 05:18:56;;;;;;;20.10;12.53;;;12.50;99.90;;;;;;5464113;26;20287;-66
2024/04/13 05:21:24;;;;;;;19.97;11.60;;;12.50;99.90;;;;;;5465974;26;20353;-66
2024/04/13 05:23:56;;;;;;;16.47;12.10;;;12.60;99.90;;;;;;5458495;26;20288;-66
2024/04/13 05:26:26;;;;;;;20.47;12.53;;;12.60;99.90;;;;;;5448612;26;20257;-66
2024/04/13 05:28:56;;;;;;;22.13;11.60;;;12.60;99.90;;;;;;5465005;25;20278;-66
2024/04/13 05:31:24;;;;;;;22.43;12.70;;;12.70;99.90;;;;;;5459672;26;20232;-66
2024/04/13 05:33:54;;;;;;;18.90;12.57;;;12.70;99.90;;;;;;5455831;26;20257;-66
2024/04/13 05:36:22;;;;;;;18.77;12.10;;;12.80;99.90;;;;;;5459909;25;20262;-66
2024/04/13 05:38:52;;;;;;;20.10;11.50;;;12.90;99.90;;;;;;5460652;26;20353;-66
2024/04/13 05:41:20;;;;;;;18.77;12.53;;;12.90;99.90;;;;;;5459193;26;20257;-66
2024/04/13 05:43:53;;;;;;;16.13;11.73;;;13.00;99.90;;;;;;5449107;25;21113;-66
2024/04/13 05:46:20;;;;;;;18.27;11.60;;;13.00;99.90;;;;;;5452878;26;20242;-66
2024/04/13 05:48:50;;;;;;;16.13;11.63;;;13.10;99.90;;;;;;5459208;26;20778;-66
2024/04/13 05:51:18;;;;;;;17.43;10.97;;;13.20;99.90;;;;;;5454340;26;20257;-66
2024/04/13 05:53:48;;;;;;;15.77;10.70;;;13.30;99.90;;;;;;5459931;26;20261;-66
2024/04/13 05:56:16;;;;;;;14.27;10.67;;;13.40;99.90;;;;;;5459429;26;20286;-66
2024/04/13 05:58:46;;;;;;;19.77;10.60;;;13.60;99.90;;;;;;5452538;26;20232;-65
2024/04/13 06:01:16;;;;;;;13.47;9.47;;;13.60;99.90;;;;;;5465202;26;20742;-66
2024/04/13 06:03:49;;;;;;;15.77;9.90;;;13.70;99.90;;;;;;5444496;26;20332;-66
2024/04/13 06:06:16;;;;;;;12.60;9.10;;;13.80;99.90;;;;;;5461968;25;20285;-66
2024/04/13 06:08:46;;;;;;;15.63;10.07;;;13.80;99.90;;;;;;5457987;26;20413;-67
2024/04/13 06:11:14;;;;;;;13.07;9.07;;;13.90;99.90;;;;;;5433317;26;20344;-66
2024/04/13 06:13:44;;;;;;;16.23;9.20;;;14.10;99.90;;;;;;5460612;26;20640;-65
2024/04/13 06:16:12;;;;;;;15.90;8.77;;;14.20;99.90;;;;;;5459342;26;20290;-66
2024/04/13 06:18:46;;;;;;;14.47;9.10;;;14.30;99.90;;;;;;5458330;26;20799;-66
2024/04/13 06:21:14;;;;;;;9.90;7.60;;;14.30;99.90;;;;;;5459213;26;20678;-66
2024/04/13 06:23:45;;;;;;;9.13;8.10;;;14.40;99.90;;;;;;5454013;26;20258;-66
2024/04/13 06:26:12;;;;;;;10.43;8.00;;;14.50;99.90;;;;;;5459590;26;20751;-66
2024/04/13 06:28:42;;;;;;;10.97;8.20;;;14.50;99.90;;;;;;5449852;26;20234;-65
2024/04/13 06:31:09;;;;;;;10.70;7.73;;;14.60;99.90;;;;;;5456776;26;20253;-66
2024/04/13 06:33:39;;;;;;;11.90;7.47;;;14.70;99.90;;;;;;5448926;26;20257;-66
2024/04/13 06:36:10;;;;;;;11.93;8.00;;;14.80;99.90;;;;;;5454873;26;20244;-66
2024/04/13 06:38:40;;;;;;;8.23;7.23;;;14.90;99.90;;;;;;5456960;26;20819;-66
2024/04/13 06:41:07;;;;;;;10.50;7.20;;;15.00;99.90;;;;;;5449694;26;20335;-66
2024/04/13 06:43:37;;;;;;;9.70;7.07;;;15.10;99.90;;;;;;5437246;26;20290;-66
2024/04/13 06:46:05;;;;;;;8.43;7.27;;;15.20;99.90;;;;;;5402209;26;20596;-66
2024/04/13 06:48:35;;;;;;;13.37;7.67;;;15.30;99.90;;;;;;5410477;26;20300;-66
2024/04/13 06:51:03;;;;;;;13.47;8.20;;;15.40;99.90;;;;;;5413121;26;20259;-66
2024/04/13 06:53:37;;;;;;;13.50;7.47;;;15.60;99.90;;;;;;5422779;26;20249;-66
2024/04/13 06:56:05;;;;;;;13.53;7.43;;;15.60;99.90;;;;;;5420845;26;20613;-66
2024/04/13 06:58:36;;;;;;;22.80;7.80;;;15.70;99.90;;;;;;5418962;26;20249;-66
2024/04/13 07:01:08;;;;;;;12.63;7.30;;;15.80;99.90;;;;;;5418043;26;20299;-66
2024/04/13 07:03:43;;;;;;;8.50;7.23;;;15.90;99.90;;;;;;5412562;26;20254;-66
2024/04/13 07:06:11;;;;;;;13.20;7.17;;;15.90;99.90;;;;;;5412246;26;20716;-66
2024/04/13 07:08:45;;;;;;;13.17;7.40;;;16.00;99.90;;;;;;5414498;26;20273;-66
2024/04/13 07:11:12;;;;;;;11.90;7.00;;;16.20;99.90;;;;;;5425583;26;20321;-66
2024/04/13 07:13:43;;;;;;;10.90;7.50;;;16.40;99.90;;;;;;5456337;26;20596;-66
2024/04/13 07:16:10;;;;;;;9.43;7.03;;;16.50;99.90;;;;;;5458861;26;20298;-67
2024/04/13 07:18:40;;;;;;;10.17;7.20;;;16.60;99.90;;;;;;5456459;26;20256;-67
2024/04/13 07:21:09;;;;;;;15.83;7.07;;;16.60;99.90;;;;;;5459530;26;20588;-66
2024/04/13 07:23:39;;;;;;;11.77;6.47;;;16.60;99.90;;;;;;5447631;26;20311;-66
2024/04/13 07:26:09;;;;;;;11.63;6.87;;;16.60;99.90;;;;;;5455495;26;20260;-65
2024/04/13 07:28:40;;;;;;;7.93;6.53;;;16.70;99.90;;;;;;5453865;26;20255;-65
2024/04/13 07:31:08;;;;;;;10.10;7.50;;;16.90;99.90;;;;;;5457492;26;20824;-65
2024/04/13 07:33:38;;;;;;;10.20;6.93;;;17.00;99.90;;;;;;5452745;26;20276;-65
2024/04/13 07:36:06;;;;;;;11.00;6.60;;;17.10;99.90;;;;;;5456334;26;20353;-65
2024/04/13 07:38:36;;;;;;;15.67;6.97;;;17.10;99.90;;;;;;5450493;26;20307;-65
2024/04/13 07:41:04;;;;;;;12.30;6.60;;;17.30;99.90;;;;;;5457169;25;20273;-65
2024/04/13 07:43:37;;;;;;;9.83;7.00;;;17.40;99.90;;;;;;5454895;26;20258;-65
2024/04/13 07:46:07;;;;;;;9.47;6.40;;;17.60;99.90;;;;;;5448836;26;20967;-65
2024/04/13 07:48:37;;;;;;;10.20;6.70;;;17.70;99.90;;;;;;5453041;26;20308;-65
2024/04/13 07:51:05;;;;;;;10.67;6.27;;;17.90;99.90;;;;;;5452432;25;20269;-65
2024/04/13 07:53:35;;;;;;;11.87;6.80;;;18.00;99.90;;;;;;5447947;26;20283;-65
2024/04/13 07:56:03;;;;;;;8.07;6.57;;;18.00;99.90;;;;;;5452546;26;20339;-65
2024/04/13 07:58:33;;;;;;;9.13;6.83;;;18.10;99.90;;;;;;5450304;26;20603;-65
2024/04/13 08:01:06;;;;;;;7.07;6.33;;;18.20;99.90;;;;;;5454640;26;20275;-65
2024/04/13 08:03:34;;;;;;;8.40;6.33;;;18.30;99.90;;;;;;5459943;25;20279;-65
2024/04/13 08:06:04;;;;;;;9.23;7.20;;;18.50;99.90;;;;;;5445999;26;20252;-65
2024/04/13 08:08:32;;;;;;;11.17;6.47;;;18.40;99.90;;;;;;5455517;26;20288;-65
2024/04/13 08:11:02;;;;;;;9.73;6.60;;;18.50;99.90;;;;;;5456459;25;20587;-66
2024/04/13 08:13:29;;;;;;;11.23;7.07;;;18.60;99.90;;;;;;5455717;26;20229;-65
2024/04/13 08:15:59;;;;;;;9.40;6.53;;;18.70;99.90;;;;;;5459178;25;20260;-65
2024/04/13 08:18:30;;;;;;;8.73;6.97;;;18.90;99.70;;;;;;5459975;26;20291;-65
2024/04/13 08:21:00;;;;;;;9.07;6.37;;;19.00;93.00;;;;;;5460353;25;20349;-65
2024/04/13 08:23:28;;;;;;;8.47;6.37;;;18.90;94.00;;;;;;5456292;25;20257;-65
2024/04/13 08:26:06;;;;;;;7.43;5.93;;;19.10;45.90;;;;;;5456208;25;20240;-66
2024/04/13 08:28:33;;;;;;;7.27;6.37;;;19.10;1.60;;;;;;5450594;26;21042;-66
2024/04/13 08:31:06;;;;;;;7.73;5.90;;;19.40;19.30;;;;;;5468249;26;20306;-65
2024/04/13 08:33:36;;;;;;;8.23;6.50;;;19.60;23.10;;;;;;5449050;26;20742;-65
2024/04/13 08:36:08;;;;;;;9.83;6.47;;;19.80;3.50;;;;;;5458211;26;20244;-65
2024/04/13 08:38:36;;;;;;;10.47;6.90;;;20.00;1.00;;;;;;5452440;26;20257;-65
2024/04/13 08:41:10;;;;;;;7.57;6.30;;;19.90;1.00;;;;;;5455307;26;20248;-65
2024/04/13 08:43:38;;;;;;;11.00;6.20;;;20.10;1.00;;;;;;5444832;26;20233;-65
2024/04/13 08:46:09;;;;;;;11.67;6.50;;;20.20;1.00;;;;;;5443858;26;20284;-65
2024/04/13 08:48:39;;;;;;;9.87;6.57;;;20.30;1.00;;;;;;5460959;26;20294;-65
2024/04/13 08:51:12;;;;;;;8.43;6.13;;;20.20;1.00;;;;;;5450634;26;20768;-65
2024/04/13 08:53:42;;;;;;;9.63;5.90;;;20.30;1.00;;;;;;5453272;26;20349;-65
2024/04/13 08:56:13;;;;;;;8.13;6.67;;;20.30;1.00;;;;;;5453347;25;20758;-65
2024/04/13 08:58:42;;;;;;;22.67;14.37;;;20.50;1.00;;;;;;5454433;25;20751;-65
2024/04/13 09:01:16;;;;;;;14.60;8.90;;;20.80;1.00;;;;;;5457680;26;20266;-65
2024/04/13 09:03:46;;;;;;;10.50;7.50;;;21.00;1.00;;;;;;5455569;26;20246;-65
2024/04/13 09:06:17;;;;;;;8.27;6.57;;;21.10;1.00;;;;;;5450117;26;20280;-65
2024/04/13 09:08:47;;;;;;;19.87;12.23;;;21.30;1.00;;;;;;5451263;25;20262;-65
2024/04/13 09:11:22;;;;;;;15.10;8.83;;;21.60;1.00;;;;;;5450198;26;20281;-65
2024/04/13 09:13:49;;;;;;;7.43;6.40;;;21.90;1.00;;;;;;5458681;26;20254;-65
2024/04/13 09:16:20;;;;;;;9.03;6.63;;;22.00;1.00;;;;;;5459570;26;20235;-65
2024/04/13 09:18:50;;;;;;;12.20;6.03;;;22.00;1.00;;;;;;5431747;26;20262;-65
2024/04/13 09:21:21;;;;;;;9.03;5.90;;;22.20;1.00;;;;;;5450257;26;20297;-65
2024/04/13 09:23:50;;;;;;;11.50;6.03;;;22.10;1.00;;;;;;5449040;26;20333;-65
2024/04/13 09:26:21;;;;;;;9.03;5.80;;;22.00;1.00;;;;;;5459502;26;20269;-65
2024/04/13 09:28:49;;;;;;;8.63;5.87;;;22.10;1.00;;;;;;5447798;26;20233;-65
2024/04/13 09:31:20;;;;;;;10.10;5.97;;;22.30;1.00;;;;;;5456393;26;20691;-65
2024/04/13 09:33:52;;;;;;;8.70;5.63;;;22.20;1.00;;;;;;5454609;26;20257;-65
2024/04/13 09:36:24;;;;;;;9.40;6.13;;;22.80;1.00;;;;;;5457729;26;20713;-65
2024/04/13 09:38:53;;;;;;;6.27;5.40;;;22.80;1.00;;;;;;5459447;26;20255;-65
2024/04/13 09:41:24;;;;;;;11.30;6.13;;;22.50;1.00;;;;;;5452348;26;20250;-65
2024/04/13 09:43:52;;;;;;;8.40;5.63;;;22.50;1.00;;;;;;5459466;25;20654;-65
2024/04/13 09:46:22;;;;;;;10.20;6.53;;;22.60;1.00;;;;;;5456716;26;20848;-65
2024/04/13 09:48:54;;;;;;;7.90;5.87;;;22.60;1.00;;;;;;5457930;25;20731;-65
2024/04/13 09:51:28;;;;;;;7.80;5.67;;;22.80;1.00;;;;;;5455742;26;20304;-65
2024/04/13 09:53:56;;;;;;;9.80;5.93;;;22.90;1.00;;;;;;5448487;26;20262;-65
2024/04/13 09:56:26;;;;;;;9.90;5.27;;;23.20;1.00;;;;;;5457401;26;21186;-65
2024/04/13 09:58:55;;;;;;;8.33;4.73;;;23.50;1.00;;;;;;5455775;25;20247;-65
2024/04/13 10:01:25;;;;;;;6.50;4.50;;;23.90;1.00;;;;;;5463754;26;20240;-65
2024/04/13 10:03:55;;;;;;;6.33;4.73;;;23.90;1.00;;;;;;5463620;26;20772;-65
2024/04/13 10:06:26;;;;;;;5.83;4.53;;;24.00;1.00;;;;;;5458945;26;20409;-64
2024/04/13 10:08:54;;;;;;;4.80;4.40;;;24.10;99.90;;;;;;5454377;26;20256;-65
2024/04/13 10:11:25;;;;;;;6.45;4.60;;;24.30;1.00;;;;;;5459440;25;20347;-65
2024/04/13 10:13:53;;;;;;;4.30;3.80;;;24.80;1.00;;;;;;5456274;26;20601;-65
2024/04/13 10:16:24;;;;;;;6.80;4.10;;;25.10;1.00;;;;;;5459884;26;20233;-65
2024/04/13 10:18:55;;;;;;;3.97;3.63;;;25.00;1.00;;;;;;5455562;25;20266;-65
2024/04/13 10:21:25;;;;;;;3.92;3.42;;;25.10;1.00;;;;;;5451039;26;20588;-65
2024/04/13 10:23:55;;;;;;;4.82;3.60;;;25.40;1.00;;;;;;5461934;26;20388;-65
2024/04/13 10:26:29;;;;;;;5.90;3.47;;;25.60;99.90;;;;;;5453113;25;20254;-65
2024/04/13 10:29:03;;;;;;;7.65;3.60;;;25.40;1.00;;;;;;5460786;26;20248;-65
2024/04/13 10:31:31;;;;;;;5.18;3.55;;;25.20;1.00;;;;;;5451794;26;20276;-65
2024/04/13 10:34:04;;;;;;;3.63;3.33;;;25.20;1.00;;;;;;5462857;25;20291;-65
2024/04/13 10:36:33;;;;;;;5.63;3.40;;;25.40;1.00;;;;;;5453867;26;20746;-65
2024/04/13 10:39:05;;;;;;;4.32;3.60;;;25.70;1.00;;;;;;5459657;26;20354;-65
2024/04/13 10:41:33;;;;;;;7.13;3.80;;;25.80;1.00;;;;;;5455772;26;20248;-65
2024/04/13 10:44:07;;;;;;;4.93;3.47;;;26.00;1.00;;;;;;5456300;26;20284;-65
2024/04/13 10:46:35;;;;;;;4.13;3.72;;;26.00;1.00;;;;;;5461048;26;20280;-65
2024/04/13 10:49:09;;;;;;;5.28;3.60;;;26.10;1.00;;;;;;5461232;26;20268;-65
2024/04/13 10:51:40;;;;;;;7.03;3.60;;;26.20;1.00;;;;;;5457265;26;20671;-65
2024/04/13 10:54:14;;;;;;;6.32;3.42;;;26.30;1.00;;;;;;5460022;26;20272;-65
2024/04/13 10:56:42;;;;;;;6.80;3.65;;;26.40;1.00;;;;;;5460646;25;20256;-65
2024/04/13 10:59:13;;;;;;;3.50;3.28;;;26.50;1.00;;;;;;5454785;26;20278;-65
2024/04/13 11:01:41;;;;;;;7.93;3.45;;;26.40;1.00;;;;;;5465637;25;20283;-65
2024/04/13 11:04:15;;;;;;;10.93;3.45;;;26.50;1.00;;;;;;5461233;26;20617;-65
2024/04/13 11:06:43;;;;;;;4.38;2.90;;;26.80;1.00;;;;;;5457576;26;20253;-65
2024/04/13 11:09:14;;;;;;;5.88;3.33;;;26.60;1.00;;;;;;5452021;25;20255;-65
2024/04/13 11:11:42;;;;;;;4.68;3.45;;;26.40;1.00;;;;;;5460156;26;20912;-65
2024/04/13 11:14:12;;;;;;;6.75;3.10;;;26.40;1.00;;;;;;5453972;26;20308;-65
2024/04/13 11:16:41;;;;;;;6.97;2.90;;;26.40;1.00;;;;;;5454479;26;20237;-65
2024/04/13 11:19:14;;;;;;;4.82;3.13;;;26.50;1.00;;;;;;5458964;26;20232;-65
2024/04/13 11:21:45;;;;;;;12.43;3.20;;;27.10;1.00;;;;;;5449626;26;20258;-65
2024/04/13 11:24:16;;;;;;;3.38;3.03;;;27.10;1.00;;;;;;5458242;26;20821;-65
2024/04/13 11:26:45;;;;;;;3.30;3.00;;;26.70;1.00;;;;;;5455265;26;20263;-64
2024/04/13 11:29:15;;;;;;;6.03;3.75;;;26.70;1.00;;;;;;5456608;25;20322;-65
2024/04/13 11:31:43;;;;;;;7.95;2.92;;;26.60;1.00;;;;;;5458898;25;20235;-65
2024/04/13 11:34:20;;;;;;;10.25;3.25;;;26.80;1.00;;;;;;5464710;26;20230;-65
2024/04/13 11:36:48;;;;;;;3.72;3.25;;;27.00;1.00;;;;;;5455853;26;20282;-65
2024/04/13 11:39:18;;;;;;;5.85;3.10;;;26.70;1.00;;;;;;5456913;25;20261;-65
2024/04/13 11:41:46;;;;;;;4.15;3.33;;;27.00;1.00;;;;;;5449350;26;20262;-65
2024/04/13 11:44:17;;;;;;;7.68;3.15;;;27.70;1.00;;;;;;5449147;26;20259;-65
2024/04/13 11:46:47;;;;;;;3.42;3.13;;;27.60;1.00;;;;;;5452596;26;20625;-63
2024/04/13 11:49:17;;;;;;;5.28;3.53;;;27.90;1.00;;;;;;5453575;26;20275;-65
2024/04/13 11:51:48;;;;;;;3.92;3.22;;;27.90;1.00;;;;;;5458055;26;20624;-65
2024/04/13 11:54:16;;;;;;;3.63;3.35;;;27.60;1.00;;;;;;5457345;25;20257;-64
2024/04/13 11:56:46;;;;;;;5.82;3.13;;;27.10;1.00;;;;;;5454000;26;20720;-65
2024/04/13 11:59:17;;;;;;;9.95;3.70;;;27.00;1.00;;;;;;5440881;26;20246;-64
2024/04/13 12:01:47;;;;;;;3.78;3.15;;;27.40;1.00;;;;;;5455867;26;20238;-63
2024/04/13 12:04:17;;;;;;;3.53;3.03;;;27.70;1.00;;;;;;5455394;26;20242;-64
2024/04/13 12:06:48;;;;;;;3.63;3.30;;;27.90;1.00;;;;;;5452847;25;20608;-65
2024/04/13 12:09:15;;;;;;;5.43;3.08;;;27.70;1.00;;;;;;5458979;26;20253;-65
2024/04/13 12:11:45;;;;;;;5.55;3.20;;;27.50;1.00;;;;;;5457111;26;20261;-64
2024/04/13 12:14:14;;;;;;;7.75;4.32;;;27.20;1.00;;;;;;5458196;26;20254;-64
2024/04/13 12:16:47;;;;;;;23.42;12.27;;;27.20;1.00;;;;;;5458642;26;20238;-64
2024/04/13 12:19:17;;;;;;;14.73;11.33;;;27.20;1.00;;;;;;5445753;26;20245;-65
2024/04/13 12:21:47;;;;;;;12.60;6.57;;;27.00;1.00;;;;;;5476564;26;20258;-64
2024/04/13 12:24:15;;;;;;;9.90;6.87;;;26.80;1.00;;;;;;5453464;25;20299;-65
2024/04/13 12:26:45;;;;;;;5.60;5.03;;;26.30;1.00;;;;;;5460928;25;20253;-62
2024/04/13 12:29:13;;;;;;;13.23;3.90;;;26.30;1.00;;;;;;5443177;26;20410;-64
2024/04/13 12:31:43;;;;;;;4.57;3.30;;;26.20;1.00;;;;;;5450087;26;20239;-63
2024/04/13 12:34:10;;;;;;;5.80;3.60;;;26.30;1.00;;;;;;5459543;26;20268;-63
2024/04/13 12:36:44;;;;;;;7.37;3.57;;;26.20;1.00;;;;;;5454252;26;20264;-64
2024/04/13 12:39:11;;;;;;;4.53;3.20;;;26.20;1.00;;;;;;5464159;25;20335;-64
2024/04/13 12:41:41;;;;;;;4.43;3.23;;;26.30;1.00;;;;;;5447929;26;20284;-64
2024/04/13 12:44:08;;;;;;;5.80;3.30;;;26.60;1.00;;;;;;5445091;26;20279;-64
2024/04/13 12:46:39;;;;;;;5.37;3.10;;;26.50;1.00;;;;;;5442130;26;20287;-64
2024/04/13 12:49:07;;;;;;;5.93;2.80;;;26.50;1.00;;;;;;5439621;26;20253;-63
2024/04/13 12:51:37;;;;;;;4.53;2.80;;;26.50;1.00;;;;;;5442501;26;20739;-64
2024/04/13 12:54:08;;;;;;;4.70;2.97;;;26.20;1.00;;;;;;5444214;26;20245;-64